Terminal Aerodrome Forecast
Issued by NWS

Home | Current Version | Previous Version | Text Only | Print | Product List | Glossary On
Versions: 1 2 3 4 5 6 7 8 9 10 11 12 13 14 15 16 17 18 19 20 21 22
658
FTUS41 KRLX 261739
TAFCKB
TAF
KCKB 261739Z 2618/2718 20008KT P6SM VCTS SCT030 BKN045CB BKN060
     FM262300 23004KT P6SM BKN080
     FM270300 00000KT P6SM OVC060
     FM271100 20004KT 3SM BR OVC035
     FM271300 20005KT P6SM OVC025
     FM271700 22005KT P6SM OVC040=

USA.gov is the U.S. government's official web portal to all federal, state and local government web resources and services.